sensor_id;sensor_type;location;lat;lon;timestamp;pressure;altitude;pressure_sealevel;temperature;humidity
42411;BME280;28056;51.112;0.984;2023-01-15T00:01:58;99170.83;;;4.85;58.34
42411;BME280;28056;51.112;0.984;2023-01-15T00:04:25;99180.40;;;5.57;57.69
42411;BME280;28056;51.112;0.984;2023-01-15T00:06:52;99167.08;;;5.89;57.90
42411;BME280;28056;51.112;0.984;2023-01-15T00:09:19;99166.90;;;6.29;57.02
42411;BME280;28056;51.112;0.984;2023-01-15T00:11:47;99173.40;;;3.94;60.95
42411;BME280;28056;51.112;0.984;2023-01-15T00:14:14;99166.77;;;4.45;60.39
42411;BME280;28056;51.112;0.984;2023-01-15T00:16:41;99168.38;;;5.38;60.00
42411;BME280;28056;51.112;0.984;2023-01-15T00:19:10;99179.39;;;4.98;60.32
42411;BME280;28056;51.112;0.984;2023-01-15T00:21:37;99171.56;;;5.04;59.01
42411;BME280;28056;51.112;0.984;2023-01-15T00:24:05;99168.93;;;5.20;58.94
42411;BME280;28056;51.112;0.984;2023-01-15T00:26:33;99165.24;;;4.75;60.32
42411;BME280;28056;51.112;0.984;2023-01-15T00:29:00;99153.34;;;5.59;57.59
42411;BME280;28056;51.112;0.984;2023-01-15T00:31:28;99161.98;;;5.66;58.42
42411;BME280;28056;51.112;0.984;2023-01-15T00:33:55;99164.45;;;4.26;60.35
42411;BME280;28056;51.112;0.984;2023-01-15T00:36:22;99163.28;;;4.15;60.34
42411;BME280;28056;51.112;0.984;2023-01-15T00:38:49;99163.24;;;5.00;57.95
42411;BME280;28056;51.112;0.984;2023-01-15T00:41:17;99170.80;;;3.93;60.32
42411;BME280;28056;51.112;0.984;2023-01-15T00:43:45;99164.78;;;4.73;58.80
42411;BME280;28056;51.112;0.984;2023-01-15T00:46:13;99173.66;;;5.13;57.95
42411;BME280;28056;51.112;0.984;2023-01-15T00:48:40;99169.72;;;4.90;59.24
42411;BME280;28056;51.112;0.984;2023-01-15T00:51:07;99165.13;;;4.70;58.90
42411;BME280;28056;51.112;0.984;2023-01-15T00:53:34;99165.34;;;4.59;58.96
42411;BME280;28056;51.112;0.984;2023-01-15T00:56:02;99177.98;;;4.58;58.68
42411;BME280;28056;51.112;0.984;2023-01-15T00:58:29;99168.84;;;4.28;59.88
42411;BME280;28056;51.112;0.984;2023-01-15T01:00:58;99182.67;;;3.63;61.31
42411;BME280;28056;51.112;0.984;2023-01-15T01:04:47;99174.64;;;4.80;58.35
42411;BME280;28056;51.112;0.984;2023-01-15T01:07:14;99172.00;;;5.00;57.50
42411;BME280;28056;51.112;0.984;2023-01-15T01:09:42;99163.59;;;4.38;58.17
42411;BME280;28056;51.112;0.984;2023-01-15T01:12:10;99155.63;;;4.51;57.71
42411;BME280;28056;51.112;0.984;2023-01-15T01:14:39;99159.30;;;5.05;57.56
42411;BME280;28056;51.112;0.984;2023-01-15T01:17:06;99155.78;;;4.53;58.62
42411;BME280;28056;51.112;0.984;2023-01-15T01:19:33;99156.87;;;5.11;57.29
42411;BME280;28056;51.112;0.984;2023-01-15T01:22:00;99160.41;;;5.00;57.47
42411;BME280;28056;51.112;0.984;2023-01-15T01:24:27;99149.68;;;5.38;56.58
42411;BME280;28056;51.112;0.984;2023-01-15T01:26:55;99150.11;;;5.62;56.25
42411;BME280;28056;51.112;0.984;2023-01-15T01:29:22;99158.72;;;5.46;55.84
42411;BME280;28056;51.112;0.984;2023-01-15T01:31:49;99163.46;;;5.20;54.95
42411;BME280;28056;51.112;0.984;2023-01-15T01:34:18;99157.57;;;6.41;55.18
42411;BME280;28056;51.112;0.984;2023-01-15T01:36:45;99167.38;;;5.58;54.47
42411;BME280;28056;51.112;0.984;2023-01-15T01:39:14;99163.47;;;6.04;53.98
42411;BME280;28056;51.112;0.984;2023-01-15T01:41:42;99174.02;;;6.38;53.69
42411;BME280;28056;51.112;0.984;2023-01-15T01:45:02;99168.87;;;6.06;54.42
42411;BME280;28056;51.112;0.984;2023-01-15T01:47:32;99174.80;;;5.45;55.45
42411;BME280;28056;51.112;0.984;2023-01-15T01:50:04;99166.46;;;5.75;54.67
42411;BME280;28056;51.112;0.984;2023-01-15T01:52:39;99180.64;;;4.57;56.27
42411;BME280;28056;51.112;0.984;2023-01-15T01:55:09;99174.95;;;5.19;55.67
42411;BME280;28056;51.112;0.984;2023-01-15T01:57:38;99169.01;;;4.79;56.91
42411;BME280;28056;51.112;0.984;2023-01-15T02:00:07;99165.06;;;5.00;57.01
42411;BME280;28056;51.112;0.984;2023-01-15T02:02:34;99173.04;;;4.28;58.22
42411;BME280;28056;51.112;0.984;2023-01-15T02:05:02;99168.55;;;4.05;58.45
42411;BME280;28056;51.112;0.984;2023-01-15T02:07:30;99163.86;;;3.82;59.67
42411;BME280;28056;51.112;0.984;2023-01-15T02:09:58;99168.56;;;4.15;59.91
42411;BME280;28056;51.112;0.984;2023-01-15T02:12:29;99159.47;;;3.03;60.74
42411;BME280;28056;51.112;0.984;2023-01-15T02:15:04;99163.54;;;3.61;60.52
42411;BME280;28056;51.112;0.984;2023-01-15T02:17:39;99177.73;;;3.70;60.39
42411;BME280;28056;51.112;0.984;2023-01-15T02:20:21;99170.13;;;3.05;62.36
42411;BME280;28056;51.112;0.984;2023-01-15T02:23:01;99173.48;;;3.70;61.91
42411;BME280;28056;51.112;0.984;2023-01-15T02:25:40;99166.11;;;3.37;62.24
42411;BME280;28056;51.112;0.984;2023-01-15T02:28:17;99168.52;;;3.06;62.92
42411;BME280;28056;51.112;0.984;2023-01-15T02:30:49;99173.93;;;2.28;65.35
42411;BME280;28056;51.112;0.984;2023-01-15T02:33:25;99177.73;;;3.67;62.04
42411;BME280;28056;51.112;0.984;2023-01-15T02:35:56;99176.88;;;3.36;62.73
42411;BME280;28056;51.112;0.984;2023-01-15T02:38:27;99175.13;;;3.56;62.59
42411;BME280;28056;51.112;0.984;2023-01-15T02:40:59;99181.53;;;3.08;62.88
42411;BME280;28056;51.112;0.984;2023-01-15T02:43:34;99186.33;;;3.73;61.97
42411;BME280;28056;51.112;0.984;2023-01-15T02:46:03;99190.93;;;2.99;63.54
42411;BME280;28056;51.112;0.984;2023-01-15T02:48:34;99193.74;;;3.95;62.24
42411;BME280;28056;51.112;0.984;2023-01-15T02:51:06;99198.39;;;4.06;61.14
42411;BME280;28056;51.112;0.984;2023-01-15T02:53:37;99191.03;;;3.74;60.97
42411;BME280;28056;51.112;0.984;2023-01-15T02:56:09;99193.10;;;4.38;58.80
42411;BME280;28056;51.112;0.984;2023-01-15T02:58:40;99190.57;;;4.12;59.54
42411;BME280;28056;51.112;0.984;2023-01-15T03:01:11;99194.46;;;4.09;60.52
42411;BME280;28056;51.112;0.984;2023-01-15T03:03:45;99196.75;;;5.10;58.14
42411;BME280;28056;51.112;0.984;2023-01-15T03:06:16;99194.77;;;3.64;60.42
42411;BME280;28056;51.112;0.984;2023-01-15T03:08:45;99192.98;;;3.90;59.90
42411;BME280;28056;51.112;0.984;2023-01-15T03:11:14;99200.78;;;4.05;59.61
42411;BME280;28056;51.112;0.984;2023-01-15T03:13:46;99198.48;;;4.40;58.41
42411;BME280;28056;51.112;0.984;2023-01-15T03:16:20;99201.42;;;4.28;58.88
42411;BME280;28056;51.112;0.984;2023-01-15T03:18:55;99194.38;;;4.02;59.93
42411;BME280;28056;51.112;0.984;2023-01-15T03:21:29;99195.74;;;3.43;59.95
42411;BME280;28056;51.112;0.984;2023-01-15T03:24:01;99201.25;;;2.79;62.33
42411;BME280;28056;51.112;0.984;2023-01-15T03:26:30;99196.19;;;2.73;63.50
42411;BME280;28056;51.112;0.984;2023-01-15T03:28:59;99197.07;;;2.71;63.73
42411;BME280;28056;51.112;0.984;2023-01-15T03:31:29;99194.36;;;2.74;63.60
42411;BME280;28056;51.112;0.984;2023-01-15T03:33:57;99192.61;;;2.50;63.05
42411;BME280;28056;51.112;0.984;2023-01-15T03:36:24;99190.64;;;3.57;61.48
42411;BME280;28056;51.112;0.984;2023-01-15T03:38:51;99182.53;;;3.58;60.43
42411;BME280;28056;51.112;0.984;2023-01-15T03:41:24;99188.46;;;3.62;60.64
42411;BME280;28056;51.112;0.984;2023-01-15T03:44:01;99179.89;;;3.38;60.13
42411;BME280;28056;51.112;0.984;2023-01-15T03:46:40;99177.70;;;3.53;59.35
42411;BME280;28056;51.112;0.984;2023-01-15T03:49:17;99181.86;;;3.38;59.01
42411;BME280;28056;51.112;0.984;2023-01-15T03:51:54;99175.07;;;3.83;58.03
42411;BME280;28056;51.112;0.984;2023-01-15T03:54:30;99170.00;;;4.16;57.01
42411;BME280;28056;51.112;0.984;2023-01-15T03:57:04;99171.97;;;4.57;56.97
42411;BME280;28056;51.112;0.984;2023-01-15T03:59:35;99169.04;;;4.25;55.84
42411;BME280;28056;51.112;0.984;2023-01-15T04:02:07;99164.28;;;4.09;54.59
42411;BME280;28056;51.112;0.984;2023-01-15T04:04:36;99165.15;;;3.97;54.75
42411;BME280;28056;51.112;0.984;2023-01-15T04:07:04;99167.10;;;4.42;54.40
42411;BME280;28056;51.112;0.984;2023-01-15T04:09:32;99159.86;;;3.69;55.28
42411;BME280;28056;51.112;0.984;2023-01-15T04:12:03;99166.05;;;4.81;54.90
42411;BME280;28056;51.112;0.984;2023-01-15T04:14:31;99176.91;;;4.36;53.71
42411;BME280;28056;51.112;0.984;2023-01-15T04:16:58;99165.79;;;4.49;53.78
42411;BME280;28056;51.112;0.984;2023-01-15T04:19:25;99170.35;;;4.56;53.62
42411;BME280;28056;51.112;0.984;2023-01-15T04:21:53;99173.41;;;4.34;53.50
42411;BME280;28056;51.112;0.984;2023-01-15T04:24:20;99170.13;;;3.00;56.58
42411;BME280;28056;51.112;0.984;2023-01-15T04:26:47;99172.26;;;3.93;55.42
42411;BME280;28056;51.112;0.984;2023-01-15T04:29:14;99176.40;;;3.59;57.00
42411;BME280;28056;51.112;0.984;2023-01-15T04:31:41;99183.26;;;3.07;57.16
42411;BME280;28056;51.112;0.984;2023-01-15T04:34:08;99188.45;;;3.51;57.20
42411;BME280;28056;51.112;0.984;2023-01-15T04:36:35;99176.04;;;3.46;57.85
42411;BME280;28056;51.112;0.984;2023-01-15T04:39:03;99185.64;;;3.68;56.62
42411;BME280;28056;51.112;0.984;2023-01-15T04:41:31;99186.66;;;3.46;56.99
42411;BME280;28056;51.112;0.984;2023-01-15T04:43:58;99182.85;;;2.76;58.86
42411;BME280;28056;51.112;0.984;2023-01-15T04:46:25;99180.71;;;2.90;59.69
42411;BME280;28056;51.112;0.984;2023-01-15T04:48:52;99178.25;;;3.44;58.18
42411;BME280;28056;51.112;0.984;2023-01-15T04:51:20;99182.78;;;4.06;57.39
42411;BME280;28056;51.112;0.984;2023-01-15T04:53:47;99174.44;;;3.96;57.25
42411;BME280;28056;51.112;0.984;2023-01-15T04:56:15;99171.19;;;3.97;57.58
42411;BME280;28056;51.112;0.984;2023-01-15T04:58:42;99168.67;;;3.13;58.55
42411;BME280;28056;51.112;0.984;2023-01-15T05:01:10;99154.38;;;3.81;57.59
42411;BME280;28056;51.112;0.984;2023-01-15T05:03:38;99164.10;;;2.86;59.42
42411;BME280;28056;51.112;0.984;2023-01-15T05:06:06;99157.93;;;3.36;59.08
42411;BME280;28056;51.112;0.984;2023-01-15T05:08:34;99151.82;;;2.13;61.60
42411;BME280;28056;51.112;0.984;2023-01-15T05:11:02;99162.30;;;2.22;62.02
42411;BME280;28056;51.112;0.984;2023-01-15T05:13:30;99156.34;;;2.67;61.75
42411;BME280;28056;51.112;0.984;2023-01-15T05:16:07;99162.07;;;2.55;61.26
42411;BME280;28056;51.112;0.984;2023-01-15T05:18:35;99156.05;;;2.17;61.73
42411;BME280;28056;51.112;0.984;2023-01-15T05:21:03;99149.33;;;2.00;63.54
42411;BME280;28056;51.112;0.984;2023-01-15T05:23:30;99161.49;;;1.58;63.68
42411;BME280;28056;51.112;0.984;2023-01-15T05:26:01;99154.28;;;1.62;64.37
42411;BME280;28056;51.112;0.984;2023-01-15T05:28:29;99144.08;;;3.08;61.09
42411;BME280;28056;51.112;0.984;2023-01-15T05:30:56;99145.42;;;2.97;61.13
42411;BME280;28056;51.112;0.984;2023-01-15T05:33:23;99135.00;;;1.91;62.93
42411;BME280;28056;51.112;0.984;2023-01-15T05:35:50;99140.11;;;2.81;61.89
42411;BME280;28056;51.112;0.984;2023-01-15T05:38:17;99140.12;;;2.70;61.46
42411;BME280;28056;51.112;0.984;2023-01-15T05:40:45;99134.22;;;2.54;60.79
42411;BME280;28056;51.112;0.984;2023-01-15T05:43:12;99134.11;;;1.84;63.90
42411;BME280;28056;51.112;0.984;2023-01-15T05:45:39;99145.49;;;3.09;60.93
42411;BME280;28056;51.112;0.984;2023-01-15T05:48:06;99137.99;;;3.21;61.91
42411;BME280;28056;51.112;0.984;2023-01-15T05:50:33;99127.20;;;3.41;59.77
42411;BME280;28056;51.112;0.984;2023-01-15T05:53:00;99134.31;;;2.62;61.28
42411;BME280;28056;51.112;0.984;2023-01-15T05:55:27;99136.13;;;2.99;60.74
42411;BME280;28056;51.112;0.984;2023-01-15T05:57:55;99122.18;;;3.87;58.26
42411;BME280;28056;51.112;0.984;2023-01-15T06:00:23;99120.90;;;2.81;60.63
42411;BME280;28056;51.112;0.984;2023-01-15T06:02:50;99132.03;;;3.42;59.05
42411;BME280;28056;51.112;0.984;2023-01-15T06:05:18;99137.24;;;2.65;60.15
42411;BME280;28056;51.112;0.984;2023-01-15T06:07:47;99142.83;;;2.58;61.58
42411;BME280;28056;51.112;0.984;2023-01-15T06:10:16;99129.94;;;2.98;60.29
42411;BME280;28056;51.112;0.984;2023-01-15T06:12:43;99131.89;;;2.16;62.08
42411;BME280;28056;51.112;0.984;2023-01-15T06:15:10;99134.53;;;2.37;62.74
42411;BME280;28056;51.112;0.984;2023-01-15T06:17:38;99133.53;;;2.36;63.64
42411;BME280;28056;51.112;0.984;2023-01-15T06:20:06;99134.56;;;2.81;62.90
42411;BME280;28056;51.112;0.984;2023-01-15T06:22:35;99127.95;;;2.19;63.54
42411;BME280;28056;51.112;0.984;2023-01-15T06:25:03;99123.86;;;3.24;62.02
42411;BME280;28056;51.112;0.984;2023-01-15T06:27:30;99117.27;;;3.07;62.96
42411;BME280;28056;51.112;0.984;2023-01-15T06:29:57;99114.50;;;3.28;62.71
42411;BME280;28056;51.112;0.984;2023-01-15T06:32:25;99117.31;;;2.64;63.95
42411;BME280;28056;51.112;0.984;2023-01-15T06:34:52;99107.09;;;2.49;62.21
42411;BME280;28056;51.112;0.984;2023-01-15T06:37:19;99102.19;;;2.29;64.00
42411;BME280;28056;51.112;0.984;2023-01-15T06:39:47;99105.50;;;3.11;62.23
42411;BME280;28056;51.112;0.984;2023-01-15T06:42:13;99086.69;;;2.50;63.07
42411;BME280;28056;51.112;0.984;2023-01-15T06:44:40;99094.32;;;2.76;62.03
42411;BME280;28056;51.112;0.984;2023-01-15T06:47:12;99084.83;;;3.54;60.05
42411;BME280;28056;51.112;0.984;2023-01-15T06:49:40;99101.12;;;3.21;60.88
42411;BME280;28056;51.112;0.984;2023-01-15T06:52:07;99079.86;;;3.27;60.46
42411;BME280;28056;51.112;0.984;2023-01-15T06:54:34;99089.33;;;3.06;61.65
42411;BME280;28056;51.112;0.984;2023-01-15T06:57:02;99082.39;;;3.54;59.79
42411;BME280;28056;51.112;0.984;2023-01-15T06:59:30;99076.39;;;2.48;61.89
42411;BME280;28056;51.112;0.984;2023-01-15T07:01:57;99068.04;;;3.13;60.59
42411;BME280;28056;51.112;0.984;2023-01-15T07:04:24;99064.01;;;2.81;61.72
42411;BME280;28056;51.112;0.984;2023-01-15T07:06:51;99066.39;;;3.88;58.55
42411;BME280;28056;51.112;0.984;2023-01-15T07:09:18;99073.61;;;3.22;59.94
42411;BME280;28056;51.112;0.984;2023-01-15T07:11:45;99076.54;;;2.67;60.40
42411;BME280;28056;51.112;0.984;2023-01-15T07:14:13;99071.62;;;3.17;59.36
42411;BME280;28056;51.112;0.984;2023-01-15T07:16:40;99078.19;;;3.58;59.10
42411;BME280;28056;51.112;0.984;2023-01-15T07:19:08;99079.17;;;3.18;60.21
42411;BME280;28056;51.112;0.984;2023-01-15T07:21:36;99077.63;;;3.85;58.35
42411;BME280;28056;51.112;0.984;2023-01-15T07:24:03;99065.35;;;2.36;60.99
42411;BME280;28056;51.112;0.984;2023-01-15T07:26:30;99085.92;;;3.15;60.97
42411;BME280;28056;51.112;0.984;2023-01-15T07:28:57;99088.19;;;4.25;58.90
42411;BME280;28056;51.112;0.984;2023-01-15T07:31:25;99089.23;;;3.52;59.88
42411;BME280;28056;51.112;0.984;2023-01-15T07:33:52;99108.83;;;3.73;58.21
42411;BME280;28056;51.112;0.984;2023-01-15T07:36:19;99103.62;;;2.65;63.49
42411;BME280;28056;51.112;0.984;2023-01-15T07:38:46;99107.55;;;2.99;63.24
42411;BME280;28056;51.112;0.984;2023-01-15T07:41:13;99115.63;;;2.83;63.66
42411;BME280;28056;51.112;0.984;2023-01-15T07:43:40;99119.05;;;3.00;62.95
42411;BME280;28056;51.112;0.984;2023-01-15T07:46:09;99109.14;;;2.14;65.27
42411;BME280;28056;51.112;0.984;2023-01-15T07:48:37;99100.96;;;2.87;63.67
42411;BME280;28056;51.112;0.984;2023-01-15T07:51:04;99108.97;;;2.23;65.97
42411;BME280;28056;51.112;0.984;2023-01-15T07:53:31;99114.46;;;2.39;65.65
42411;BME280;28056;51.112;0.984;2023-01-15T07:55:58;99101.96;;;2.39;65.84
42411;BME280;28056;51.112;0.984;2023-01-15T07:58:26;99102.75;;;2.61;66.74
42411;BME280;28056;51.112;0.984;2023-01-15T08:00:53;99105.67;;;2.87;65.41
42411;BME280;28056;51.112;0.984;2023-01-15T08:03:20;99102.55;;;2.60;65.18
42411;BME280;28056;51.112;0.984;2023-01-15T08:05:47;99100.33;;;2.52;66.26
42411;BME280;28056;51.112;0.984;2023-01-15T08:08:14;99095.30;;;2.82;64.81
42411;BME280;28056;51.112;0.984;2023-01-15T08:10:42;99101.16;;;2.87;65.23
42411;BME280;28056;51.112;0.984;2023-01-15T08:13:09;99084.38;;;2.85;64.34
42411;BME280;28056;51.112;0.984;2023-01-15T08:15:39;99076.60;;;2.56;65.70
42411;BME280;28056;51.112;0.984;2023-01-15T08:18:07;99085.67;;;2.59;66.36
42411;BME280;28056;51.112;0.984;2023-01-15T08:20:34;99082.02;;;2.81;65.71
42411;BME280;28056;51.112;0.984;2023-01-15T08:23:02;99084.88;;;2.95;65.23
42411;BME280;28056;51.112;0.984;2023-01-15T08:25:29;99085.71;;;2.95;65.05
42411;BME280;28056;51.112;0.984;2023-01-15T08:28:00;99091.95;;;2.66;66.62
42411;BME280;28056;51.112;0.984;2023-01-15T08:30:27;99087.80;;;2.98;66.41
42411;BME280;28056;51.112;0.984;2023-01-15T08:32:58;99097.30;;;2.96;66.26
42411;BME280;28056;51.112;0.984;2023-01-15T08:35:26;99102.19;;;3.07;65.63
42411;BME280;28056;51.112;0.984;2023-01-15T08:37:54;99106.74;;;3.15;65.55
42411;BME280;28056;51.112;0.984;2023-01-15T08:40:21;99096.36;;;3.17;65.06
42411;BME280;28056;51.112;0.984;2023-01-15T08:42:48;99103.60;;;2.82;66.20
42411;BME280;28056;51.112;0.984;2023-01-15T08:45:15;99085.16;;;2.93;65.75
42411;BME280;28056;51.112;0.984;2023-01-15T08:47:42;99083.66;;;3.17;64.82
42411;BME280;28056;51.112;0.984;2023-01-15T08:50:10;99097.93;;;3.09;64.69
42411;BME280;28056;51.112;0.984;2023-01-15T08:52:38;99084.27;;;3.18;63.85
42411;BME280;28056;51.112;0.984;2023-01-15T08:55:06;99092.65;;;3.08;64.77
42411;BME280;28056;51.112;0.984;2023-01-15T08:57:34;99101.92;;;2.81;65.20
42411;BME280;28056;51.112;0.984;2023-01-15T09:00:02;99105.15;;;3.12;65.66
42411;BME280;28056;51.112;0.984;2023-01-15T09:02:30;99109.45;;;2.95;65.11
42411;BME280;28056;51.112;0.984;2023-01-15T09:04:57;99109.39;;;3.18;65.41
42411;BME280;28056;51.112;0.984;2023-01-15T09:07:25;99119.48;;;2.87;66.33
42411;BME280;28056;51.112;0.984;2023-01-15T09:09:51;99108.21;;;3.59;64.36
42411;BME280;28056;51.112;0.984;2023-01-15T09:12:19;99114.25;;;3.24;65.95
42411;BME280;28056;51.112;0.984;2023-01-15T09:14:46;99121.95;;;2.83;65.61
42411;BME280;28056;51.112;0.984;2023-01-15T09:17:13;99121.38;;;3.10;65.67
42411;BME280;28056;51.112;0.984;2023-01-15T09:19:40;99126.87;;;3.45;65.09
42411;BME280;28056;51.112;0.984;2023-01-15T09:22:07;99114.20;;;3.22;65.06
42411;BME280;28056;51.112;0.984;2023-01-15T09:24:34;99127.48;;;3.48;65.33
42411;BME280;28056;51.112;0.984;2023-01-15T09:27:02;99119.30;;;3.72;63.69
42411;BME280;28056;51.112;0.984;2023-01-15T09:29:29;99121.22;;;3.83;63.48
42411;BME280;28056;51.112;0.984;2023-01-15T09:31:56;99121.87;;;3.23;64.98
42411;BME280;28056;51.112;0.984;2023-01-15T09:34:24;99117.17;;;3.75;63.52
42411;BME280;28056;51.112;0.984;2023-01-15T09:36:51;99125.10;;;3.87;63.82
42411;BME280;28056;51.112;0.984;2023-01-15T09:39:18;99125.53;;;3.81;63.89
42411;BME280;28056;51.112;0.984;2023-01-15T09:41:57;99129.24;;;3.39;64.46
42411;BME280;28056;51.112;0.984;2023-01-15T09:44:36;99132.37;;;3.51;64.16
42411;BME280;28056;51.112;0.984;2023-01-15T09:47:10;99133.20;;;3.80;64.97
42411;BME280;28056;51.112;0.984;2023-01-15T09:50:21;99146.73;;;3.68;64.22
42411;BME280;28056;51.112;0.984;2023-01-15T09:53:01;99143.08;;;3.69;63.86
42411;BME280;28056;51.112;0.984;2023-01-15T09:55:32;99149.98;;;3.32;65.60
42411;BME280;28056;51.112;0.984;2023-01-15T09:58:02;99151.81;;;3.95;63.48
42411;BME280;28056;51.112;0.984;2023-01-15T10:00:34;99162.30;;;3.97;63.79
42411;BME280;28056;51.112;0.984;2023-01-15T10:03:06;99164.83;;;3.83;63.88
42411;BME280;28056;51.112;0.984;2023-01-15T10:05:42;99167.86;;;4.00;63.36
42411;BME280;28056;51.112;0.984;2023-01-15T10:08:16;99181.04;;;4.08;62.74
42411;BME280;28056;51.112;0.984;2023-01-15T10:10:49;99168.64;;;4.47;62.18
42411;BME280;28056;51.112;0.984;2023-01-15T10:13:25;99166.81;;;4.55;63.17
42411;BME280;28056;51.112;0.984;2023-01-15T10:15:53;99173.93;;;4.14;63.32
42411;BME280;28056;51.112;0.984;2023-01-15T10:18:23;99169.87;;;3.95;63.71
42411;BME280;28056;51.112;0.984;2023-01-15T10:21:01;99173.82;;;4.07;63.46
42411;BME280;28056;51.112;0.984;2023-01-15T10:23:34;99188.31;;;4.61;62.32
42411;BME280;28056;51.112;0.984;2023-01-15T10:26:10;99194.74;;;4.24;62.34
42411;BME280;28056;51.112;0.984;2023-01-15T10:28:51;99191.58;;;4.12;62.51
42411;BME280;28056;51.112;0.984;2023-01-15T10:31:28;99179.24;;;4.02;64.19
42411;BME280;28056;51.112;0.984;2023-01-15T10:34:13;99184.43;;;4.14;63.85
42411;BME280;28056;51.112;0.984;2023-01-15T10:36:52;99190.63;;;4.56;63.82
42411;BME280;28056;51.112;0.984;2023-01-15T10:39:28;99190.48;;;4.59;62.40
42411;BME280;28056;51.112;0.984;2023-01-15T10:42:05;99182.20;;;4.11;63.94
42411;BME280;28056;51.112;0.984;2023-01-15T10:44:45;99189.57;;;4.19;62.75
42411;BME280;28056;51.112;0.984;2023-01-15T10:47:17;99200.77;;;4.12;64.15
42411;BME280;28056;51.112;0.984;2023-01-15T10:49:45;99203.77;;;4.18;63.22
42411;BME280;28056;51.112;0.984;2023-01-15T10:52:22;99197.61;;;4.38;64.20
42411;BME280;28056;51.112;0.984;2023-01-15T10:54:57;99206.82;;;4.03;63.94
42411;BME280;28056;51.112;0.984;2023-01-15T10:57:37;99208.22;;;4.54;61.24
42411;BME280;28056;51.112;0.984;2023-01-15T11:00:10;99204.64;;;3.75;63.19
42411;BME280;28056;51.112;0.984;2023-01-15T11:02:39;99220.24;;;4.40;63.38
42411;BME280;28056;51.112;0.984;2023-01-15T11:05:13;99217.47;;;4.31;61.44
42411;BME280;28056;51.112;0.984;2023-01-15T11:07:42;99208.33;;;4.37;62.56
42411;BME280;28056;51.112;0.984;2023-01-15T11:10:13;99216.55;;;4.47;62.78
42411;BME280;28056;51.112;0.984;2023-01-15T11:12:47;99214.06;;;4.30;62.94
42411;BME280;28056;51.112;0.984;2023-01-15T11:15:22;99202.34;;;4.42;63.38
42411;BME280;28056;51.112;0.984;2023-01-15T11:17:49;99210.05;;;5.60;59.15
42411;BME280;28056;51.112;0.984;2023-01-15T11:20:25;99203.80;;;5.10;60.71
42411;BME280;28056;51.112;0.984;2023-01-15T11:22:54;99215.24;;;5.36;60.72
42411;BME280;28056;51.112;0.984;2023-01-15T11:25:27;99188.59;;;5.31;59.22
42411;BME280;28056;51.112;0.984;2023-01-15T11:27:56;99198.18;;;5.04;60.88
42411;BME280;28056;51.112;0.984;2023-01-15T11:30:26;99196.86;;;5.45;59.52
42411;BME280;28056;51.112;0.984;2023-01-15T11:32:55;99195.75;;;5.29;58.41
42411;BME280;28056;51.112;0.984;2023-01-15T11:35:23;99200.28;;;5.03;60.06
42411;BME280;28056;51.112;0.984;2023-01-15T11:38:02;99197.45;;;5.28;58.97
42411;BME280;28056;51.112;0.984;2023-01-15T11:40:30;99204.78;;;5.19;59.55
42411;BME280;28056;51.112;0.984;2023-01-15T11:42:57;99188.22;;;5.16;59.81
42411;BME280;28056;51.112;0.984;2023-01-15T11:45:24;99188.81;;;5.43;58.65
42411;BME280;28056;51.112;0.984;2023-01-15T11:47:53;99189.49;;;5.81;58.60
42411;BME280;28056;51.112;0.984;2023-01-15T11:50:20;99190.21;;;6.13;57.94
42411;BME280;28056;51.112;0.984;2023-01-15T11:52:51;99174.88;;;6.66;55.14
42411;BME280;28056;51.112;0.984;2023-01-15T11:55:21;99164.52;;;6.49;55.41
42411;BME280;28056;51.112;0.984;2023-01-15T11:57:51;99155.07;;;7.04;56.05
42411;BME280;28056;51.112;0.984;2023-01-15T12:00:22;99153.45;;;8.16;52.09
42411;BME280;28056;51.112;0.984;2023-01-15T12:02:53;99158.53;;;7.79;51.51
42411;BME280;28056;51.112;0.984;2023-01-15T12:05:24;99162.08;;;7.53;51.97
42411;BME280;28056;51.112;0.984;2023-01-15T12:07:56;99165.99;;;6.70;51.69
42411;BME280;28056;51.112;0.984;2023-01-15T12:10:26;99166.84;;;7.21;51.91
42411;BME280;28056;51.112;0.984;2023-01-15T12:13:04;99166.88;;;7.32;52.92
42411;BME280;28056;51.112;0.984;2023-01-15T12:15:44;99175.49;;;7.20;54.16
42411;BME280;28056;51.112;0.984;2023-01-15T12:18:41;99166.71;;;6.83;53.60
42411;BME280;28056;51.112;0.984;2023-01-15T12:21:39;99167.90;;;6.69;52.72
42411;BME280;28056;51.112;0.984;2023-01-15T12:24:26;99158.65;;;6.68;53.37
42411;BME280;28056;51.112;0.984;2023-01-15T12:27:05;99159.49;;;7.34;52.49
42411;BME280;28056;51.112;0.984;2023-01-15T12:29:42;99152.78;;;7.45;52.99
42411;BME280;28056;51.112;0.984;2023-01-15T12:32:16;99135.34;;;7.01;54.01
42411;BME280;28056;51.112;0.984;2023-01-15T12:34:50;99130.22;;;7.96;50.28
42411;BME280;28056;51.112;0.984;2023-01-15T12:37:22;99132.04;;;8.47;49.61
42411;BME280;28056;51.112;0.984;2023-01-15T12:39:54;99118.12;;;8.45;47.10
42411;BME280;28056;51.112;0.984;2023-01-15T12:42:24;99115.50;;;9.56;45.44
42411;BME280;28056;51.112;0.984;2023-01-15T12:44:53;99112.23;;;9.35;45.37
42411;BME280;28056;51.112;0.984;2023-01-15T12:47:26;99106.53;;;9.73;44.29
42411;BME280;28056;51.112;0.984;2023-01-15T12:49:59;99121.57;;;10.21;43.69
42411;BME280;28056;51.112;0.984;2023-01-15T12:52:34;99108.49;;;9.35;43.81
42411;BME280;28056;51.112;0.984;2023-01-15T12:55:12;99108.48;;;10.81;44.09
42411;BME280;28056;51.112;0.984;2023-01-15T12:57:43;99110.72;;;11.13;39.95
42411;BME280;28056;51.112;0.984;2023-01-15T13:00:17;99110.56;;;10.20;42.63
42411;BME280;28056;51.112;0.984;2023-01-15T13:02:57;99114.71;;;10.14;42.13
42411;BME280;28056;51.112;0.984;2023-01-15T13:05:29;99123.28;;;10.25;41.50
42411;BME280;28056;51.112;0.984;2023-01-15T13:08:00;99118.53;;;8.81;44.30
42411;BME280;28056;51.112;0.984;2023-01-15T13:10:30;99118.45;;;8.83;45.68
42411;BME280;28056;51.112;0.984;2023-01-15T13:13:12;99118.71;;;10.37;43.06
42411;BME280;28056;51.112;0.984;2023-01-15T13:15:49;99113.34;;;10.12;41.58
42411;BME280;28056;51.112;0.984;2023-01-15T13:18:28;99113.11;;;9.52;42.24
42411;BME280;28056;51.112;0.984;2023-01-15T13:21:03;99117.02;;;8.81;43.36
42411;BME280;28056;51.112;0.984;2023-01-15T13:23:43;99116.92;;;9.70;43.45
42411;BME280;28056;51.112;0.984;2023-01-15T13:26:25;99115.30;;;8.64;43.30
42411;BME280;28056;51.112;0.984;2023-01-15T13:29:08;99116.44;;;8.87;43.93